sensor_id;sensor_type;location;lat;lon;timestamp;temperature;humidity
74359;DHT22;62792;46.236;6.040;2023-02-12T00:03:51;24.30;28.50
74359;DHT22;62792;46.236;6.040;2023-02-12T00:08:54;24.30;28.50
74359;DHT22;62792;46.236;6.040;2023-02-12T00:14:00;24.20;28.60
74359;DHT22;62792;46.236;6.040;2023-02-12T00:19:03;24.30;28.50
74359;DHT22;62792;46.236;6.040;2023-02-12T00:24:06;24.30;28.50
74359;DHT22;62792;46.236;6.040;2023-02-12T00:29:10;24.30;28.60
74359;DHT22;62792;46.236;6.040;2023-02-12T00:34:13;24.30;28.40
74359;DHT22;62792;46.236;6.040;2023-02-12T00:39:16;24.30;28.50
74359;DHT22;62792;46.236;6.040;2023-02-12T00:44:20;24.30;28.50
74359;DHT22;62792;46.236;6.040;2023-02-12T00:49:23;24.20;28.20
74359;DHT22;62792;46.236;6.040;2023-02-12T00:54:26;24.30;28.50
74359;DHT22;62792;46.236;6.040;2023-02-12T00:59:31;24.30;28.50
74359;DHT22;62792;46.236;6.040;2023-02-12T01:04:36;24.20;28.40
74359;DHT22;62792;46.236;6.040;2023-02-12T01:09:39;24.20;28.30
74359;DHT22;62792;46.236;6.040;2023-02-12T01:14:43;24.30;28.50
74359;DHT22;62792;46.236;6.040;2023-02-12T01:19:46;24.30;28.50
74359;DHT22;62792;46.236;6.040;2023-02-12T01:24:49;24.20;28.40
74359;DHT22;62792;46.236;6.040;2023-02-12T01:29:53;24.20;28.20
74359;DHT22;62792;46.236;6.040;2023-02-12T01:34:56;24.20;28.30
74359;DHT22;62792;46.236;6.040;2023-02-12T01:39:59;24.30;28.20
74359;DHT22;62792;46.236;6.040;2023-02-12T01:50:41;24.30;28.30
74359;DHT22;62792;46.236;6.040;2023-02-12T01:55:49;24.30;28.30
74359;DHT22;62792;46.236;6.040;2023-02-12T02:00:55;24.30;28.30
74359;DHT22;62792;46.236;6.040;2023-02-12T02:06:00;24.20;28.10
74359;DHT22;62792;46.236;6.040;2023-02-12T02:11:05;24.30;28.30
74359;DHT22;62792;46.236;6.040;2023-02-12T02:16:29;24.20;28.20
74359;DHT22;62792;46.236;6.040;2023-02-12T02:21:45;24.30;28.20
74359;DHT22;62792;46.236;6.040;2023-02-12T02:27:09;24.20;28.20
74359;DHT22;62792;46.236;6.040;2023-02-12T02:32:18;24.20;28.20
74359;DHT22;62792;46.236;6.040;2023-02-12T02:37:26;24.10;28.30
74359;DHT22;62792;46.236;6.040;2023-02-12T02:42:32;24.30;28.10
74359;DHT22;62792;46.236;6.040;2023-02-12T02:47:38;24.20;28.10
74359;DHT22;62792;46.236;6.040;2023-02-12T02:52:44;24.30;28.20
74359;DHT22;62792;46.236;6.040;2023-02-12T02:57:50;24.20;28.10
74359;DHT22;62792;46.236;6.040;2023-02-12T03:02:58;24.10;28.10
74359;DHT22;62792;46.236;6.040;2023-02-12T03:08:05;24.00;28.10
74359;DHT22;62792;46.236;6.040;2023-02-12T03:13:11;24.10;28.00
74359;DHT22;62792;46.236;6.040;2023-02-12T03:18:18;24.00;27.90
74359;DHT22;62792;46.236;6.040;2023-02-12T03:23:26;24.10;27.80
74359;DHT22;62792;46.236;6.040;2023-02-12T03:28:33;23.90;28.10
74359;DHT22;62792;46.236;6.040;2023-02-12T03:33:40;23.90;27.90
74359;DHT22;62792;46.236;6.040;2023-02-12T03:38:48;23.70;28.10
74359;DHT22;62792;46.236;6.040;2023-02-12T03:43:53;23.70;28.10
74359;DHT22;62792;46.236;6.040;2023-02-12T03:49:02;23.80;28.10
74359;DHT22;62792;46.236;6.040;2023-02-12T03:54:08;23.90;28.00
74359;DHT22;62792;46.236;6.040;2023-02-12T03:59:12;24.00;27.80
74359;DHT22;62792;46.236;6.040;2023-02-12T04:04:16;23.90;28.00
74359;DHT22;62792;46.236;6.040;2023-02-12T04:09:19;23.80;27.70
74359;DHT22;62792;46.236;6.040;2023-02-12T04:14:26;23.70;27.90
74359;DHT22;62792;46.236;6.040;2023-02-12T04:19:38;23.70;27.80
74359;DHT22;62792;46.236;6.040;2023-02-12T04:24:48;23.90;27.80
74359;DHT22;62792;46.236;6.040;2023-02-12T04:29:53;23.80;27.70
74359;DHT22;62792;46.236;6.040;2023-02-12T04:35:00;23.90;27.70
74359;DHT22;62792;46.236;6.040;2023-02-12T04:40:07;23.90;27.80
74359;DHT22;62792;46.236;6.040;2023-02-12T04:45:14;24.00;27.60
74359;DHT22;62792;46.236;6.040;2023-02-12T04:50:20;23.90;27.80
74359;DHT22;62792;46.236;6.040;2023-02-12T04:55:24;23.80;27.70
74359;DHT22;62792;46.236;6.040;2023-02-12T05:00:27;23.70;27.80
74359;DHT22;62792;46.236;6.040;2023-02-12T05:05:31;23.60;28.20
74359;DHT22;62792;46.236;6.040;2023-02-12T05:10:34;23.70;27.60
74359;DHT22;62792;46.236;6.040;2023-02-12T05:15:37;23.80;27.80
74359;DHT22;62792;46.236;6.040;2023-02-12T05:20:41;23.80;27.70
74359;DHT22;62792;46.236;6.040;2023-02-12T05:25:45;23.80;27.60
74359;DHT22;62792;46.236;6.040;2023-02-12T05:30:47;23.80;27.60
74359;DHT22;62792;46.236;6.040;2023-02-12T05:35:52;23.70;27.50
74359;DHT22;62792;46.236;6.040;2023-02-12T05:40:59;23.70;27.70
74359;DHT22;62792;46.236;6.040;2023-02-12T05:46:04;23.70;27.50
74359;DHT22;62792;46.236;6.040;2023-02-12T05:51:10;23.80;27.50
74359;DHT22;62792;46.236;6.040;2023-02-12T05:56:14;23.80;27.50
74359;DHT22;62792;46.236;6.040;2023-02-12T06:01:20;23.70;27.50
74359;DHT22;62792;46.236;6.040;2023-02-12T06:06:27;23.80;27.40
74359;DHT22;62792;46.236;6.040;2023-02-12T06:11:30;23.80;27.50
74359;DHT22;62792;46.236;6.040;2023-02-12T06:16:33;23.80;27.30
74359;DHT22;62792;46.236;6.040;2023-02-12T06:21:37;23.70;27.40
74359;DHT22;62792;46.236;6.040;2023-02-12T06:26:40;23.70;27.50
74359;DHT22;62792;46.236;6.040;2023-02-12T06:31:43;23.70;27.40
74359;DHT22;62792;46.236;6.040;2023-02-12T06:36:48;23.60;27.50
74359;DHT22;62792;46.236;6.040;2023-02-12T06:41:50;23.70;27.40
74359;DHT22;62792;46.236;6.040;2023-02-12T06:46:54;23.70;27.40
74359;DHT22;62792;46.236;6.040;2023-02-12T06:52:00;23.70;27.40
74359;DHT22;62792;46.236;6.040;2023-02-12T06:57:04;23.70;27.50
74359;DHT22;62792;46.236;6.040;2023-02-12T07:02:08;23.70;27.40
74359;DHT22;62792;46.236;6.040;2023-02-12T07:07:12;23.60;27.90
74359;DHT22;62792;46.236;6.040;2023-02-12T07:12:15;23.60;27.80
74359;DHT22;62792;46.236;6.040;2023-02-12T07:17:18;23.70;27.40
74359;DHT22;62792;46.236;6.040;2023-02-12T07:22:23;23.80;27.20
74359;DHT22;62792;46.236;6.040;2023-02-12T07:27:25;23.70;27.20
74359;DHT22;62792;46.236;6.040;2023-02-12T07:32:29;23.90;27.10
74359;DHT22;62792;46.236;6.040;2023-02-12T07:37:34;23.80;27.10
74359;DHT22;62792;46.236;6.040;2023-02-12T07:42:37;23.60;27.20
74359;DHT22;62792;46.236;6.040;2023-02-12T07:47:40;23.70;27.30
74359;DHT22;62792;46.236;6.040;2023-02-12T07:52:44;23.70;27.40
74359;DHT22;62792;46.236;6.040;2023-02-12T07:57:47;23.80;27.30
74359;DHT22;62792;46.236;6.040;2023-02-12T08:02:50;23.80;27.30
74359;DHT22;62792;46.236;6.040;2023-02-12T08:07:55;23.90;27.20
74359;DHT22;62792;46.236;6.040;2023-02-12T08:12:58;23.90;27.10
74359;DHT22;62792;46.236;6.040;2023-02-12T08:18:01;24.00;27.30
74359;DHT22;62792;46.236;6.040;2023-02-12T08:23:05;23.90;27.50
74359;DHT22;62792;46.236;6.040;2023-02-12T08:28:08;23.80;27.50
74359;DHT22;62792;46.236;6.040;2023-02-12T08:33:11;23.80;27.60
74359;DHT22;62792;46.236;6.040;2023-02-12T08:38:15;23.90;27.50
74359;DHT22;62792;46.236;6.040;2023-02-12T08:43:18;24.00;27.50
74359;DHT22;62792;46.236;6.040;2023-02-12T08:48:21;24.00;27.50
74359;DHT22;62792;46.236;6.040;2023-02-12T08:53:25;24.00;27.70
74359;DHT22;62792;46.236;6.040;2023-02-12T08:58:28;24.00;27.70
74359;DHT22;62792;46.236;6.040;2023-02-12T09:03:31;23.80;28.00
74359;DHT22;62792;46.236;6.040;2023-02-12T09:08:36;23.70;27.90
74359;DHT22;62792;46.236;6.040;2023-02-12T09:13:39;23.80;27.90
74359;DHT22;62792;46.236;6.040;2023-02-12T09:18:42;24.00;28.00
74359;DHT22;62792;46.236;6.040;2023-02-12T09:23:47;23.90;28.00
74359;DHT22;62792;46.236;6.040;2023-02-12T09:28:50;23.80;27.90
74359;DHT22;62792;46.236;6.040;2023-02-12T09:33:53;23.80;28.20
74359;DHT22;62792;46.236;6.040;2023-02-12T09:39:00;23.80;28.30
74359;DHT22;62792;46.236;6.040;2023-02-12T09:44:05;23.80;28.40
74359;DHT22;62792;46.236;6.040;2023-02-12T09:49:13;23.80;28.20
74359;DHT22;62792;46.236;6.040;2023-02-12T09:54:22;23.90;28.30
74359;DHT22;62792;46.236;6.040;2023-02-12T09:59:28;24.00;28.40
74359;DHT22;62792;46.236;6.040;2023-02-12T10:04:34;24.00;28.40
74359;DHT22;62792;46.236;6.040;2023-02-12T10:09:45;23.90;28.40
74359;DHT22;62792;46.236;6.040;2023-02-12T10:15:03;24.00;28.50
74359;DHT22;62792;46.236;6.040;2023-02-12T10:20:21;23.90;28.50
74359;DHT22;62792;46.236;6.040;2023-02-12T10:25:45;24.00;28.40
74359;DHT22;62792;46.236;6.040;2023-02-12T10:30:53;24.00;28.50
74359;DHT22;62792;46.236;6.040;2023-02-12T10:36:00;24.00;28.40
74359;DHT22;62792;46.236;6.040;2023-02-12T10:41:06;24.10;28.30
74359;DHT22;62792;46.236;6.040;2023-02-12T10:46:12;24.00;28.70
74359;DHT22;62792;46.236;6.040;2023-02-12T10:51:21;24.00;28.60
74359;DHT22;62792;46.236;6.040;2023-02-12T10:56:33;24.10;28.40
74359;DHT22;62792;46.236;6.040;2023-02-12T11:01:38;24.10;28.50
74359;DHT22;62792;46.236;6.040;2023-02-12T11:06:44;24.20;28.60
74359;DHT22;62792;46.236;6.040;2023-02-12T11:12:00;24.20;28.60
74359;DHT22;62792;46.236;6.040;2023-02-12T11:17:03;24.20;28.60
74359;DHT22;62792;46.236;6.040;2023-02-12T11:22:07;24.30;28.70
74359;DHT22;62792;46.236;6.040;2023-02-12T11:27:18;24.20;28.70
74359;DHT22;62792;46.236;6.040;2023-02-12T11:32:23;24.20;28.70
74359;DHT22;62792;46.236;6.040;2023-02-12T11:37:26;24.20;28.70
74359;DHT22;62792;46.236;6.040;2023-02-12T11:42:31;24.20;28.70
74359;DHT22;62792;46.236;6.040;2023-02-12T11:47:37;24.30;28.80
74359;DHT22;62792;46.236;6.040;2023-02-12T11:52:42;24.30;28.80
74359;DHT22;62792;46.236;6.040;2023-02-12T11:57:46;24.40;28.70
74359;DHT22;62792;46.236;6.040;2023-02-12T12:02:52;24.30;28.80
74359;DHT22;62792;46.236;6.040;2023-02-12T12:07:58;24.30;28.70
74359;DHT22;62792;46.236;6.040;2023-02-12T12:13:08;24.40;28.90
74359;DHT22;62792;46.236;6.040;2023-02-12T12:18:16;24.40;28.70
74359;DHT22;62792;46.236;6.040;2023-02-12T12:23:43;24.40;28.80
74359;DHT22;62792;46.236;6.040;2023-02-12T12:28:51;24.40;28.80
74359;DHT22;62792;46.236;6.040;2023-02-12T12:34:02;24.50;28.80
74359;DHT22;62792;46.236;6.040;2023-02-12T12:39:15;24.40;28.80
74359;DHT22;62792;46.236;6.040;2023-02-12T12:44:26;24.50;28.80
74359;DHT22;62792;46.236;6.040;2023-02-12T12:49:49;24.50;29.00
74359;DHT22;62792;46.236;6.040;2023-02-12T12:55:06;24.50;29.00
74359;DHT22;62792;46.236;6.040;2023-02-12T13:11:13;24.50;29.10
74359;DHT22;62792;46.236;6.040;2023-02-12T13:16:25;24.50;29.20
74359;DHT22;62792;46.236;6.040;2023-02-12T13:21:34;24.50;29.30
74359;DHT22;62792;46.236;6.040;2023-02-12T13:26:41;24.50;29.20
74359;DHT22;62792;46.236;6.040;2023-02-12T13:31:52;24.60;29.20
74359;DHT22;62792;46.236;6.040;2023-02-12T13:36:58;24.60;29.20
74359;DHT22;62792;46.236;6.040;2023-02-12T13:42:07;24.60;29.20
74359;DHT22;62792;46.236;6.040;2023-02-12T13:47:24;24.60;29.10
74359;DHT22;62792;46.236;6.040;2023-02-12T13:52:32;24.70;29.30
74359;DHT22;62792;46.236;6.040;2023-02-12T13:57:38;24.60;29.20
74359;DHT22;62792;46.236;6.040;2023-02-12T14:02:44;24.60;29.40
74359;DHT22;62792;46.236;6.040;2023-02-12T14:07:50;24.60;29.30
74359;DHT22;62792;46.236;6.040;2023-02-12T14:12:54;24.70;29.30
74359;DHT22;62792;46.236;6.040;2023-02-12T14:18:05;24.60;29.20
74359;DHT22;62792;46.236;6.040;2023-02-12T14:23:20;24.70;29.20
74359;DHT22;62792;46.236;6.040;2023-02-12T14:28:32;24.70;29.30
74359;DHT22;62792;46.236;6.040;2023-02-12T14:33:47;24.60;29.40
74359;DHT22;62792;46.236;6.040;2023-02-12T14:38:56;24.70;29.30
74359;DHT22;62792;46.236;6.040;2023-02-12T14:49:44;24.80;29.50
74359;DHT22;62792;46.236;6.040;2023-02-12T14:54:49;24.70;29.50
74359;DHT22;62792;46.236;6.040;2023-02-12T14:59:53;24.70;29.60
74359;DHT22;62792;46.236;6.040;2023-02-12T15:05:00;24.70;29.50
74359;DHT22;62792;46.236;6.040;2023-02-12T15:10:06;24.70;29.40
74359;DHT22;62792;46.236;6.040;2023-02-12T15:15:12;24.70;29.50
74359;DHT22;62792;46.236;6.040;2023-02-12T15:20:20;24.60;29.50
74359;DHT22;62792;46.236;6.040;2023-02-12T15:25:25;24.60;29.70
74359;DHT22;62792;46.236;6.040;2023-02-12T15:30:30;24.60;29.60
74359;DHT22;62792;46.236;6.040;2023-02-12T15:35:36;24.70;29.70
74359;DHT22;62792;46.236;6.040;2023-02-12T15:40:51;24.70;29.60
74359;DHT22;62792;46.236;6.040;2023-02-12T15:45:55;24.80;29.60
74359;DHT22;62792;46.236;6.040;2023-02-12T15:51:01;25.00;29.30
74359;DHT22;62792;46.236;6.040;2023-02-12T15:56:10;25.00;29.50
74359;DHT22;62792;46.236;6.040;2023-02-12T16:01:15;25.10;29.50
74359;DHT22;62792;46.236;6.040;2023-02-12T16:06:21;25.00;29.40
74359;DHT22;62792;46.236;6.040;2023-02-12T16:11:25;25.00;29.50
74359;DHT22;62792;46.236;6.040;2023-02-12T16:16:38;24.90;29.50
74359;DHT22;62792;46.236;6.040;2023-02-12T16:21:44;24.80;29.50
74359;DHT22;62792;46.236;6.040;2023-02-12T16:26:48;24.90;29.70
74359;DHT22;62792;46.236;6.040;2023-02-12T16:31:53;24.80;29.50
74359;DHT22;62792;46.236;6.040;2023-02-12T16:36:58;24.60;29.70
74359;DHT22;62792;46.236;6.040;2023-02-12T16:42:01;24.70;29.80
74359;DHT22;62792;46.236;6.040;2023-02-12T16:47:05;24.70;29.90
74359;DHT22;62792;46.236;6.040;2023-02-12T16:52:18;24.70;29.80
74359;DHT22;62792;46.236;6.040;2023-02-12T16:57:26;24.60;29.80
74359;DHT22;62792;46.236;6.040;2023-02-12T17:02:30;24.60;29.80
74359;DHT22;62792;46.236;6.040;2023-02-12T17:07:38;24.50;29.80
74359;DHT22;62792;46.236;6.040;2023-02-12T17:12:45;24.40;29.80
74359;DHT22;62792;46.236;6.040;2023-02-12T17:17:48;24.60;29.80
74359;DHT22;62792;46.236;6.040;2023-02-12T17:22:53;24.50;30.00
74359;DHT22;62792;46.236;6.040;2023-02-12T17:27:59;24.50;30.00
74359;DHT22;62792;46.236;6.040;2023-02-12T17:33:03;24.50;29.90
74359;DHT22;62792;46.236;6.040;2023-02-12T17:38:07;24.50;30.00
74359;DHT22;62792;46.236;6.040;2023-02-12T17:43:11;24.40;30.20
74359;DHT22;62792;46.236;6.040;2023-02-12T17:48:15;24.40;30.00
74359;DHT22;62792;46.236;6.040;2023-02-12T17:53:19;24.30;30.10
74359;DHT22;62792;46.236;6.040;2023-02-12T17:58:22;24.30;30.20
74359;DHT22;62792;46.236;6.040;2023-02-12T18:03:25;24.40;30.20
74359;DHT22;62792;46.236;6.040;2023-02-12T18:08:30;24.40;29.90
74359;DHT22;62792;46.236;6.040;2023-02-12T18:13:33;24.30;30.20
74359;DHT22;62792;46.236;6.040;2023-02-12T18:18:36;24.30;30.20
74359;DHT22;62792;46.236;6.040;2023-02-12T18:23:41;24.30;30.10
74359;DHT22;62792;46.236;6.040;2023-02-12T18:28:45;24.30;30.20
74359;DHT22;62792;46.236;6.040;2023-02-12T18:33:48;24.30;30.20
74359;DHT22;62792;46.236;6.040;2023-02-12T18:38:52;24.20;30.30
74359;DHT22;62792;46.236;6.040;2023-02-12T18:43:56;24.20;30.20
74359;DHT22;62792;46.236;6.040;2023-02-12T18:48:59;24.20;30.10
74359;DHT22;62792;46.236;6.040;2023-02-12T18:54:05;24.30;30.40
74359;DHT22;62792;46.236;6.040;2023-02-12T18:59:09;24.20;30.20
74359;DHT22;62792;46.236;6.040;2023-02-12T19:04:13;24.20;30.00
74359;DHT22;62792;46.236;6.040;2023-02-12T19:09:19;24.30;30.30
74359;DHT22;62792;46.236;6.040;2023-02-12T19:14:25;24.20;30.20
74359;DHT22;62792;46.236;6.040;2023-02-12T19:19:28;24.10;30.20
74359;DHT22;62792;46.236;6.040;2023-02-12T19:24:33;24.20;30.40
74359;DHT22;62792;46.236;6.040;2023-02-12T19:29:47;24.20;30.10
74359;DHT22;62792;46.236;6.040;2023-02-12T19:34:50;24.10;30.10
74359;DHT22;62792;46.236;6.040;2023-02-12T19:39:54;24.10;30.10
74359;DHT22;62792;46.236;6.040;2023-02-12T19:44:57;24.20;30.10
74359;DHT22;62792;46.236;6.040;2023-02-12T19:50:00;24.10;30.20
74359;DHT22;62792;46.236;6.040;2023-02-12T19:55:05;24.20;30.10
74359;DHT22;62792;46.236;6.040;2023-02-12T20:00:08;24.10;30.10
74359;DHT22;62792;46.236;6.040;2023-02-12T20:05:12;24.20;30.10
74359;DHT22;62792;46.236;6.040;2023-02-12T20:10:16;24.10;30.30
74359;DHT22;62792;46.236;6.040;2023-02-12T20:15:19;24.10;30.10
74359;DHT22;62792;46.236;6.040;2023-02-12T20:20:25;24.10;30.00
74359;DHT22;62792;46.236;6.040;2023-02-12T20:25:30;24.10;30.30
74359;DHT22;62792;46.236;6.040;2023-02-12T20:30:32;24.00;30.00
74359;DHT22;62792;46.236;6.040;2023-02-12T20:35:35;24.00;29.90
74359;DHT22;62792;46.236;6.040;2023-02-12T20:40:40;24.10;30.20
74359;DHT22;62792;46.236;6.040;2023-02-12T20:45:43;24.00;30.00
74359;DHT22;62792;46.236;6.040;2023-02-12T20:50:46;24.10;30.10
74359;DHT22;62792;46.236;6.040;2023-02-12T20:55:50;24.00;30.10
74359;DHT22;62792;46.236;6.040;2023-02-12T21:00:53;23.80;30.30
74359;DHT22;62792;46.236;6.040;2023-02-12T21:05:56;24.00;30.20
74359;DHT22;62792;46.236;6.040;2023-02-12T21:11:01;24.00;29.70
74359;DHT22;62792;46.236;6.040;2023-02-12T21:16:06;24.00;30.00
74359;DHT22;62792;46.236;6.040;2023-02-12T21:21:11;24.10;29.70
74359;DHT22;62792;46.236;6.040;2023-02-12T21:26:17;24.10;29.90
74359;DHT22;62792;46.236;6.040;2023-02-12T21:31:22;24.00;29.80
74359;DHT22;62792;46.236;6.040;2023-02-12T21:36:26;24.00;29.70
74359;DHT22;62792;46.236;6.040;2023-02-12T21:41:32;24.00;29.90
74359;DHT22;62792;46.236;6.040;2023-02-12T21:46:36;24.10;29.70
74359;DHT22;62792;46.236;6.040;2023-02-12T21:51:40;24.00;29.70
74359;DHT22;62792;46.236;6.040;2023-02-12T21:56:48;24.00;29.80
74359;DHT22;62792;46.236;6.040;2023-02-12T22:01:52;24.10;29.90
74359;DHT22;62792;46.236;6.040;2023-02-12T22:06:56;24.00;29.70
74359;DHT22;62792;46.236;6.040;2023-02-12T22:12:04;23.90;29.70
74359;DHT22;62792;46.236;6.040;2023-02-12T22:17:07;24.00;29.60
74359;DHT22;62792;46.236;6.040;2023-02-12T22:22:10;24.00;29.70
74359;DHT22;62792;46.236;6.040;2023-02-12T22:27:14;23.90;29.80
74359;DHT22;62792;46.236;6.040;2023-02-12T22:32:17;24.00;29.60
74359;DHT22;62792;46.236;6.040;2023-02-12T22:37:20;24.00;29.80
74359;DHT22;62792;46.236;6.040;2023-02-12T22:42:25;23.90;29.70
74359;DHT22;62792;46.236;6.040;2023-02-12T22:47:27;23.90;29.50
74359;DHT22;62792;46.236;6.040;2023-02-12T22:52:32;24.00;29.50
74359;DHT22;62792;46.236;6.040;2023-02-12T22:57:36;24.00;29.60
74359;DHT22;62792;46.236;6.040;2023-02-12T23:02:39;24.00;29.70
74359;DHT22;62792;46.236;6.040;2023-02-12T23:07:42;24.00;29.50
74359;DHT22;62792;46.236;6.040;2023-02-12T23:12:46;23.90;29.50
74359;DHT22;62792;46.236;6.040;2023-02-12T23:17:50;23.90;29.40
74359;DHT22;62792;46.236;6.040;2023-02-12T23:22:53;23.90;29.60
74359;DHT22;62792;46.236;6.040;2023-02-12T23:27:57;23.80;29.50
74359;DHT22;62792;46.236;6.040;2023-02-12T23:33:00;23.90;29.50
74359;DHT22;62792;46.236;6.040;2023-02-12T23:38:03;23.80;29.30
74359;DHT22;62792;46.236;6.040;2023-02-12T23:43:07;23.90;29.40
74359;DHT22;62792;46.236;6.040;2023-02-12T23:48:10;23.80;29.50
74359;DHT22;62792;46.236;6.040;2023-02-12T23:53:13;23.90;29.30
74359;DHT22;62792;46.236;6.040;2023-02-12T23:58:19;23.90;29.50
